sensor_id;sensor_type;location;lat;lon;timestamp;temperature;humidity
52709;DHT22;38606;52.986;6.980;2023-02-04T00:01:57;6.40;99.90
52709;DHT22;38606;52.986;6.980;2023-02-04T00:04:23;7.20;99.90
52709;DHT22;38606;52.986;6.980;2023-02-04T00:06:49;6.30;99.90
52709;DHT22;38606;52.986;6.980;2023-02-04T00:09:14;6.30;99.90
52709;DHT22;38606;52.986;6.980;2023-02-04T00:11:41;7.30;99.90
52709;DHT22;38606;52.986;6.980;2023-02-04T00:14:06;6.30;99.90
52709;DHT22;38606;52.986;6.980;2023-02-04T00:16:32;6.60;99.90
52709;DHT22;38606;52.986;6.980;2023-02-04T00:18:58;7.70;99.90
52709;DHT22;38606;52.986;6.980;2023-02-04T00:21:24;6.50;99.90
52709;DHT22;38606;52.986;6.980;2023-02-04T00:23:49;6.70;99.90
52709;DHT22;38606;52.986;6.980;2023-02-04T00:26:16;6.30;99.90
52709;DHT22;38606;52.986;6.980;2023-02-04T00:28:41;7.50;99.90
52709;DHT22;38606;52.986;6.980;2023-02-04T00:31:07;6.30;99.90
52709;DHT22;38606;52.986;6.980;2023-02-04T00:33:33;6.30;99.90
52709;DHT22;38606;52.986;6.980;2023-02-04T00:35:59;7.40;99.90
52709;DHT22;38606;52.986;6.980;2023-02-04T00:38:24;6.70;99.90
52709;DHT22;38606;52.986;6.980;2023-02-04T00:40:50;7.60;99.90
52709;DHT22;38606;52.986;6.980;2023-02-04T00:43:16;7.60;99.90
52709;DHT22;38606;52.986;6.980;2023-02-04T00:45:41;6.60;99.90
52709;DHT22;38606;52.986;6.980;2023-02-04T00:48:07;6.60;99.90
52709;DHT22;38606;52.986;6.980;2023-02-04T00:50:33;6.60;99.90
52709;DHT22;38606;52.986;6.980;2023-02-04T00:53:04;7.20;99.90
52709;DHT22;38606;52.986;6.980;2023-02-04T00:55:30;7.00;99.90
52709;DHT22;38606;52.986;6.980;2023-02-04T00:57:56;7.00;99.90
52709;DHT22;38606;52.986;6.980;2023-02-04T01:00:21;6.50;99.90
52709;DHT22;38606;52.986;6.980;2023-02-04T01:02:47;8.20;99.90
52709;DHT22;38606;52.986;6.980;2023-02-04T01:05:13;6.40;99.90
52709;DHT22;38606;52.986;6.980;2023-02-04T01:07:38;6.20;99.90
52709;DHT22;38606;52.986;6.980;2023-02-04T01:10:05;7.40;99.90
52709;DHT22;38606;52.986;6.980;2023-02-04T01:12:30;6.50;99.90
52709;DHT22;38606;52.986;6.980;2023-02-04T01:14:56;6.40;99.90
52709;DHT22;38606;52.986;6.980;2023-02-04T01:17:22;7.50;99.90
52709;DHT22;38606;52.986;6.980;2023-02-04T01:19:48;7.20;99.90
52709;DHT22;38606;52.986;6.980;2023-02-04T01:22:13;6.60;99.90
52709;DHT22;38606;52.986;6.980;2023-02-04T01:24:39;6.50;99.90
52709;DHT22;38606;52.986;6.980;2023-02-04T01:27:05;6.50;99.90
52709;DHT22;38606;52.986;6.980;2023-02-04T01:29:31;6.50;99.90
52709;DHT22;38606;52.986;6.980;2023-02-04T01:31:57;6.40;99.90
52709;DHT22;38606;52.986;6.980;2023-02-04T01:34:22;6.60;99.90
52709;DHT22;38606;52.986;6.980;2023-02-04T01:36:50;6.70;99.90
52709;DHT22;38606;52.986;6.980;2023-02-04T01:39:16;7.90;99.90
52709;DHT22;38606;52.986;6.980;2023-02-04T01:41:42;6.50;99.90
52709;DHT22;38606;52.986;6.980;2023-02-04T01:44:07;7.70;99.90
52709;DHT22;38606;52.986;6.980;2023-02-04T01:46:33;7.10;99.90
52709;DHT22;38606;52.986;6.980;2023-02-04T01:49:03;7.40;99.90
52709;DHT22;38606;52.986;6.980;2023-02-04T01:51:29;6.30;99.90
52709;DHT22;38606;52.986;6.980;2023-02-04T01:53:58;6.50;99.90
52709;DHT22;38606;52.986;6.980;2023-02-04T01:56:25;6.70;99.90
52709;DHT22;38606;52.986;6.980;2023-02-04T01:58:52;7.50;99.90
52709;DHT22;38606;52.986;6.980;2023-02-04T02:01:38;7.70;99.90
52709;DHT22;38606;52.986;6.980;2023-02-04T02:04:10;6.50;99.90
52709;DHT22;38606;52.986;6.980;2023-02-04T02:06:38;7.50;99.90
52709;DHT22;38606;52.986;6.980;2023-02-04T02:09:05;6.70;99.90
52709;DHT22;38606;52.986;6.980;2023-02-04T02:11:31;6.60;99.90
52709;DHT22;38606;52.986;6.980;2023-02-04T02:13:57;6.70;99.90
52709;DHT22;38606;52.986;6.980;2023-02-04T02:16:23;7.50;99.90
52709;DHT22;38606;52.986;6.980;2023-02-04T02:18:49;6.80;99.90
52709;DHT22;38606;52.986;6.980;2023-02-04T02:21:22;6.90;99.90
52709;DHT22;38606;52.986;6.980;2023-02-04T02:23:53;7.20;99.90
52709;DHT22;38606;52.986;6.980;2023-02-04T02:26:22;7.20;99.90
52709;DHT22;38606;52.986;6.980;2023-02-04T02:28:49;7.00;99.90
52709;DHT22;38606;52.986;6.980;2023-02-04T02:31:18;6.80;99.90
52709;DHT22;38606;52.986;6.980;2023-02-04T02:33:45;7.80;99.90
52709;DHT22;38606;52.986;6.980;2023-02-04T02:36:11;6.60;99.90
52709;DHT22;38606;52.986;6.980;2023-02-04T02:38:37;6.80;99.90
52709;DHT22;38606;52.986;6.980;2023-02-04T02:41:03;7.40;99.90
52709;DHT22;38606;52.986;6.980;2023-02-04T02:43:30;6.60;99.90
52709;DHT22;38606;52.986;6.980;2023-02-04T02:45:58;6.80;99.90
52709;DHT22;38606;52.986;6.980;2023-02-04T02:48:24;6.70;99.90
52709;DHT22;38606;52.986;6.980;2023-02-04T02:50:50;6.60;99.90
52709;DHT22;38606;52.986;6.980;2023-02-04T02:53:17;6.70;99.90
52709;DHT22;38606;52.986;6.980;2023-02-04T02:55:43;7.30;99.90
52709;DHT22;38606;52.986;6.980;2023-02-04T02:58:22;7.60;99.90
52709;DHT22;38606;52.986;6.980;2023-02-04T03:00:49;6.60;99.90
52709;DHT22;38606;52.986;6.980;2023-02-04T03:03:26;7.40;99.90
52709;DHT22;38606;52.986;6.980;2023-02-04T03:05:56;6.40;99.90
52709;DHT22;38606;52.986;6.980;2023-02-04T03:08:24;6.50;99.90
52709;DHT22;38606;52.986;6.980;2023-02-04T03:10:50;6.60;99.90
52709;DHT22;38606;52.986;6.980;2023-02-04T03:13:16;6.70;99.90
52709;DHT22;38606;52.986;6.980;2023-02-04T03:15:44;6.70;99.90
52709;DHT22;38606;52.986;6.980;2023-02-04T03:18:12;6.60;99.90
52709;DHT22;38606;52.986;6.980;2023-02-04T03:20:39;6.60;99.90
52709;DHT22;38606;52.986;6.980;2023-02-04T03:23:05;7.80;99.90
52709;DHT22;38606;52.986;6.980;2023-02-04T03:25:31;6.50;99.90
52709;DHT22;38606;52.986;6.980;2023-02-04T03:27:58;7.20;99.90
52709;DHT22;38606;52.986;6.980;2023-02-04T03:30:24;7.40;99.90
52709;DHT22;38606;52.986;6.980;2023-02-04T03:32:51;6.70;99.90
52709;DHT22;38606;52.986;6.980;2023-02-04T03:35:17;6.60;99.90
52709;DHT22;38606;52.986;6.980;2023-02-04T03:37:43;6.30;99.90
52709;DHT22;38606;52.986;6.980;2023-02-04T03:40:09;6.50;99.90
52709;DHT22;38606;52.986;6.980;2023-02-04T03:42:35;6.50;99.90
52709;DHT22;38606;52.986;6.980;2023-02-04T03:45:02;6.50;99.90
52709;DHT22;38606;52.986;6.980;2023-02-04T03:47:27;6.50;99.90
52709;DHT22;38606;52.986;6.980;2023-02-04T03:49:53;7.10;99.90
52709;DHT22;38606;52.986;6.980;2023-02-04T03:52:19;6.50;99.90
52709;DHT22;38606;52.986;6.980;2023-02-04T03:54:45;6.40;99.90
52709;DHT22;38606;52.986;6.980;2023-02-04T03:57:10;6.20;99.90
52709;DHT22;38606;52.986;6.980;2023-02-04T03:59:36;6.40;99.90
52709;DHT22;38606;52.986;6.980;2023-02-04T04:02:02;7.20;99.90
52709;DHT22;38606;52.986;6.980;2023-02-04T04:04:28;6.50;99.90
52709;DHT22;38606;52.986;6.980;2023-02-04T04:06:54;6.40;99.90
52709;DHT22;38606;52.986;6.980;2023-02-04T04:09:20;7.00;99.90
52709;DHT22;38606;52.986;6.980;2023-02-04T04:11:45;7.60;99.90
52709;DHT22;38606;52.986;6.980;2023-02-04T04:14:11;6.40;99.90
52709;DHT22;38606;52.986;6.980;2023-02-04T04:16:37;6.30;99.90
52709;DHT22;38606;52.986;6.980;2023-02-04T04:19:03;6.40;99.90
52709;DHT22;38606;52.986;6.980;2023-02-04T04:21:28;7.70;99.90
52709;DHT22;38606;52.986;6.980;2023-02-04T04:23:54;6.20;99.90
52709;DHT22;38606;52.986;6.980;2023-02-04T04:26:20;7.00;99.90
52709;DHT22;38606;52.986;6.980;2023-02-04T04:28:46;6.10;99.90
52709;DHT22;38606;52.986;6.980;2023-02-04T04:31:11;6.30;99.90
52709;DHT22;38606;52.986;6.980;2023-02-04T04:33:37;6.70;99.90
52709;DHT22;38606;52.986;6.980;2023-02-04T04:36:04;6.30;99.90
52709;DHT22;38606;52.986;6.980;2023-02-04T04:38:30;6.20;99.90
52709;DHT22;38606;52.986;6.980;2023-02-04T04:40:55;6.30;99.90
52709;DHT22;38606;52.986;6.980;2023-02-04T04:43:21;6.10;99.90
52709;DHT22;38606;52.986;6.980;2023-02-04T04:45:47;6.30;99.90
52709;DHT22;38606;52.986;6.980;2023-02-04T04:48:13;6.80;99.90
52709;DHT22;38606;52.986;6.980;2023-02-04T04:50:38;7.90;99.90
52709;DHT22;38606;52.986;6.980;2023-02-04T04:53:04;6.90;99.90
52709;DHT22;38606;52.986;6.980;2023-02-04T04:55:30;6.10;99.90
52709;DHT22;38606;52.986;6.980;2023-02-04T04:57:57;6.20;99.90
52709;DHT22;38606;52.986;6.980;2023-02-04T05:00:22;6.00;99.90
52709;DHT22;38606;52.986;6.980;2023-02-04T05:02:48;6.00;99.90
52709;DHT22;38606;52.986;6.980;2023-02-04T05:05:14;6.10;99.90
52709;DHT22;38606;52.986;6.980;2023-02-04T05:07:40;6.00;99.90
52709;DHT22;38606;52.986;6.980;2023-02-04T05:10:06;5.90;99.90
52709;DHT22;38606;52.986;6.980;2023-02-04T05:12:32;6.00;99.90
52709;DHT22;38606;52.986;6.980;2023-02-04T05:14:57;6.00;99.90
52709;DHT22;38606;52.986;6.980;2023-02-04T05:17:23;6.50;99.90
52709;DHT22;38606;52.986;6.980;2023-02-04T05:19:49;6.50;99.90
52709;DHT22;38606;52.986;6.980;2023-02-04T05:22:14;6.10;99.90
52709;DHT22;38606;52.986;6.980;2023-02-04T05:24:40;6.10;99.90
52709;DHT22;38606;52.986;6.980;2023-02-04T05:27:06;5.90;99.90
52709;DHT22;38606;52.986;6.980;2023-02-04T05:29:31;6.00;99.90
52709;DHT22;38606;52.986;6.980;2023-02-04T05:31:57;6.60;99.90
52709;DHT22;38606;52.986;6.980;2023-02-04T05:34:23;6.00;99.90
52709;DHT22;38606;52.986;6.980;2023-02-04T05:36:48;6.50;99.90
52709;DHT22;38606;52.986;6.980;2023-02-04T05:39:14;6.40;99.90
52709;DHT22;38606;52.986;6.980;2023-02-04T05:41:40;6.60;99.90
52709;DHT22;38606;52.986;6.980;2023-02-04T05:44:05;6.40;99.90
52709;DHT22;38606;52.986;6.980;2023-02-04T05:46:32;5.80;99.90
52709;DHT22;38606;52.986;6.980;2023-02-04T05:48:58;6.00;99.90
52709;DHT22;38606;52.986;6.980;2023-02-04T05:51:23;6.30;99.90
52709;DHT22;38606;52.986;6.980;2023-02-04T05:53:49;5.80;99.90
52709;DHT22;38606;52.986;6.980;2023-02-04T05:56:15;6.90;99.90
52709;DHT22;38606;52.986;6.980;2023-02-04T05:58:40;5.80;99.90
52709;DHT22;38606;52.986;6.980;2023-02-04T06:01:06;6.40;99.90
52709;DHT22;38606;52.986;6.980;2023-02-04T06:03:32;7.00;99.90
52709;DHT22;38606;52.986;6.980;2023-02-04T06:05:58;5.50;99.90
52709;DHT22;38606;52.986;6.980;2023-02-04T06:08:24;5.80;99.90
52709;DHT22;38606;52.986;6.980;2023-02-04T06:10:49;7.30;99.90
52709;DHT22;38606;52.986;6.980;2023-02-04T06:13:15;5.70;99.90
52709;DHT22;38606;52.986;6.980;2023-02-04T06:15:41;5.60;99.90
52709;DHT22;38606;52.986;6.980;2023-02-04T06:18:07;5.80;99.90
52709;DHT22;38606;52.986;6.980;2023-02-04T06:20:33;5.60;99.90
52709;DHT22;38606;52.986;6.980;2023-02-04T06:22:58;5.80;99.90
52709;DHT22;38606;52.986;6.980;2023-02-04T06:25:24;5.60;99.90
52709;DHT22;38606;52.986;6.980;2023-02-04T06:27:50;7.20;99.90
52709;DHT22;38606;52.986;6.980;2023-02-04T06:30:16;6.50;99.90
52709;DHT22;38606;52.986;6.980;2023-02-04T06:32:42;5.70;99.90
52709;DHT22;38606;52.986;6.980;2023-02-04T06:35:09;5.70;99.90
52709;DHT22;38606;52.986;6.980;2023-02-04T06:37:35;6.70;99.90
52709;DHT22;38606;52.986;6.980;2023-02-04T06:40:01;5.10;99.90
52709;DHT22;38606;52.986;6.980;2023-02-04T06:42:26;5.40;99.90
52709;DHT22;38606;52.986;6.980;2023-02-04T06:44:52;5.40;99.90
52709;DHT22;38606;52.986;6.980;2023-02-04T06:47:19;5.50;99.90
52709;DHT22;38606;52.986;6.980;2023-02-04T06:49:45;6.30;99.90
52709;DHT22;38606;52.986;6.980;2023-02-04T06:52:11;5.50;99.90
52709;DHT22;38606;52.986;6.980;2023-02-04T06:54:37;5.40;99.90
52709;DHT22;38606;52.986;6.980;2023-02-04T06:57:03;7.00;99.90
52709;DHT22;38606;52.986;6.980;2023-02-04T06:59:36;6.60;99.90
52709;DHT22;38606;52.986;6.980;2023-02-04T07:02:03;5.30;99.90
52709;DHT22;38606;52.986;6.980;2023-02-04T07:04:29;5.40;99.90
52709;DHT22;38606;52.986;6.980;2023-02-04T07:06:55;6.20;99.90
52709;DHT22;38606;52.986;6.980;2023-02-04T07:09:21;5.50;99.90
52709;DHT22;38606;52.986;6.980;2023-02-04T07:11:46;5.50;99.90
52709;DHT22;38606;52.986;6.980;2023-02-04T07:14:12;5.40;99.90
52709;DHT22;38606;52.986;6.980;2023-02-04T07:16:38;6.60;99.90
52709;DHT22;38606;52.986;6.980;2023-02-04T07:19:04;5.30;99.90
52709;DHT22;38606;52.986;6.980;2023-02-04T07:21:30;6.50;99.90
52709;DHT22;38606;52.986;6.980;2023-02-04T07:23:55;5.00;99.90
52709;DHT22;38606;52.986;6.980;2023-02-04T07:26:21;6.20;99.90
52709;DHT22;38606;52.986;6.980;2023-02-04T07:28:47;5.40;99.90
52709;DHT22;38606;52.986;6.980;2023-02-04T07:31:14;5.80;99.90
52709;DHT22;38606;52.986;6.980;2023-02-04T07:33:39;5.50;99.90
52709;DHT22;38606;52.986;6.980;2023-02-04T07:36:05;5.20;99.90
52709;DHT22;38606;52.986;6.980;2023-02-04T07:38:31;5.20;99.90
52709;DHT22;38606;52.986;6.980;2023-02-04T07:40:57;5.30;99.90
52709;DHT22;38606;52.986;6.980;2023-02-04T07:43:22;5.90;99.90
52709;DHT22;38606;52.986;6.980;2023-02-04T07:45:48;5.10;99.90
52709;DHT22;38606;52.986;6.980;2023-02-04T07:48:14;5.70;99.90
52709;DHT22;38606;52.986;6.980;2023-02-04T07:50:40;5.20;99.90
52709;DHT22;38606;52.986;6.980;2023-02-04T07:53:06;5.20;99.90
52709;DHT22;38606;52.986;6.980;2023-02-04T07:55:31;5.70;99.90
52709;DHT22;38606;52.986;6.980;2023-02-04T07:57:57;3.50;99.90
52709;DHT22;38606;52.986;6.980;2023-02-04T08:00:23;5.40;99.90
52709;DHT22;38606;52.986;6.980;2023-02-04T08:02:49;5.50;99.90
52709;DHT22;38606;52.986;6.980;2023-02-04T08:05:15;5.40;99.90
52709;DHT22;38606;52.986;6.980;2023-02-04T08:07:41;5.50;99.90
52709;DHT22;38606;52.986;6.980;2023-02-04T08:10:08;6.50;99.90
52709;DHT22;38606;52.986;6.980;2023-02-04T08:12:34;5.20;99.90
52709;DHT22;38606;52.986;6.980;2023-02-04T08:15:00;6.00;99.90
52709;DHT22;38606;52.986;6.980;2023-02-04T08:17:26;5.20;99.90
52709;DHT22;38606;52.986;6.980;2023-02-04T08:19:52;6.60;99.90
52709;DHT22;38606;52.986;6.980;2023-02-04T08:22:18;7.20;99.90
52709;DHT22;38606;52.986;6.980;2023-02-04T08:24:44;6.10;99.90
52709;DHT22;38606;52.986;6.980;2023-02-04T08:27:10;6.30;99.90
52709;DHT22;38606;52.986;6.980;2023-02-04T08:29:36;5.40;99.90
52709;DHT22;38606;52.986;6.980;2023-02-04T08:32:02;6.30;99.90
52709;DHT22;38606;52.986;6.980;2023-02-04T08:34:28;5.40;99.90
52709;DHT22;38606;52.986;6.980;2023-02-04T08:36:54;5.30;99.90
52709;DHT22;38606;52.986;6.980;2023-02-04T08:39:20;5.40;99.90
52709;DHT22;38606;52.986;6.980;2023-02-04T08:41:46;5.30;99.90
52709;DHT22;38606;52.986;6.980;2023-02-04T08:44:14;6.70;99.90
52709;DHT22;38606;52.986;6.980;2023-02-04T08:46:40;6.60;99.90
52709;DHT22;38606;52.986;6.980;2023-02-04T08:49:06;5.80;99.90
52709;DHT22;38606;52.986;6.980;2023-02-04T08:51:31;5.50;99.90
52709;DHT22;38606;52.986;6.980;2023-02-04T08:53:57;5.70;99.90
52709;DHT22;38606;52.986;6.980;2023-02-04T08:56:23;6.20;99.90
52709;DHT22;38606;52.986;6.980;2023-02-04T08:58:49;5.70;99.90
52709;DHT22;38606;52.986;6.980;2023-02-04T09:01:17;6.10;99.90
52709;DHT22;38606;52.986;6.980;2023-02-04T09:03:43;5.70;99.90
52709;DHT22;38606;52.986;6.980;2023-02-04T09:06:09;5.70;99.90
52709;DHT22;38606;52.986;6.980;2023-02-04T09:08:35;5.50;99.90
52709;DHT22;38606;52.986;6.980;2023-02-04T09:11:01;6.60;99.90
52709;DHT22;38606;52.986;6.980;2023-02-04T09:13:27;5.60;99.90
52709;DHT22;38606;52.986;6.980;2023-02-04T09:15:53;5.80;99.90
52709;DHT22;38606;52.986;6.980;2023-02-04T09:18:18;5.80;99.90
52709;DHT22;38606;52.986;6.980;2023-02-04T09:20:47;6.50;99.90
52709;DHT22;38606;52.986;6.980;2023-02-04T09:23:13;6.50;99.90
52709;DHT22;38606;52.986;6.980;2023-02-04T09:25:41;6.30;99.90
52709;DHT22;38606;52.986;6.980;2023-02-04T09:28:07;6.10;99.90
52709;DHT22;38606;52.986;6.980;2023-02-04T09:30:37;6.40;99.90
52709;DHT22;38606;52.986;6.980;2023-02-04T09:33:03;5.80;99.90
52709;DHT22;38606;52.986;6.980;2023-02-04T09:35:29;5.80;99.90
52709;DHT22;38606;52.986;6.980;2023-02-04T09:37:54;6.30;99.90
52709;DHT22;38606;52.986;6.980;2023-02-04T09:40:20;7.10;99.90
52709;DHT22;38606;52.986;6.980;2023-02-04T09:42:50;6.00;99.90
52709;DHT22;38606;52.986;6.980;2023-02-04T09:45:21;5.90;99.90
52709;DHT22;38606;52.986;6.980;2023-02-04T09:47:48;5.90;99.90
52709;DHT22;38606;52.986;6.980;2023-02-04T09:50:16;6.00;99.90
52709;DHT22;38606;52.986;6.980;2023-02-04T09:52:43;6.00;99.90
52709;DHT22;38606;52.986;6.980;2023-02-04T09:55:16;5.90;99.90
52709;DHT22;38606;52.986;6.980;2023-02-04T09:57:42;6.00;99.90
52709;DHT22;38606;52.986;6.980;2023-02-04T10:02:41;6.10;99.90
52709;DHT22;38606;52.986;6.980;2023-02-04T10:05:37;6.50;99.90
52709;DHT22;38606;52.986;6.980;2023-02-04T10:08:04;6.40;99.90
52709;DHT22;38606;52.986;6.980;2023-02-04T10:10:30;6.50;99.90
52709;DHT22;38606;52.986;6.980;2023-02-04T10:12:59;6.20;99.90
52709;DHT22;38606;52.986;6.980;2023-02-04T10:15:26;6.20;99.90
52709;DHT22;38606;52.986;6.980;2023-02-04T10:18:00;6.20;99.90
52709;DHT22;38606;52.986;6.980;2023-02-04T10:20:26;7.10;99.90
52709;DHT22;38606;52.986;6.980;2023-02-04T10:22:53;6.40;99.90
52709;DHT22;38606;52.986;6.980;2023-02-04T10:25:22;7.10;99.90
52709;DHT22;38606;52.986;6.980;2023-02-04T10:27:53;6.50;99.90
52709;DHT22;38606;52.986;6.980;2023-02-04T10:30:36;6.70;99.90
52709;DHT22;38606;52.986;6.980;2023-02-04T10:33:24;7.40;99.90
52709;DHT22;38606;52.986;6.980;2023-02-04T10:35:54;6.60;99.90
52709;DHT22;38606;52.986;6.980;2023-02-04T10:38:21;6.60;99.90
52709;DHT22;38606;52.986;6.980;2023-02-04T10:40:48;7.80;99.90
52709;DHT22;38606;52.986;6.980;2023-02-04T10:43:24;7.10;99.90
52709;DHT22;38606;52.986;6.980;2023-02-04T10:45:58;7.90;99.90
52709;DHT22;38606;52.986;6.980;2023-02-04T10:48:25;6.80;99.90
52709;DHT22;38606;52.986;6.980;2023-02-04T10:50:58;6.90;99.90
52709;DHT22;38606;52.986;6.980;2023-02-04T10:53:24;6.90;99.90
52709;DHT22;38606;52.986;6.980;2023-02-04T10:56:19;7.00;99.90
52709;DHT22;38606;52.986;6.980;2023-02-04T10:58:46;8.80;99.90
52709;DHT22;38606;52.986;6.980;2023-02-04T11:01:13;7.10;99.90
52709;DHT22;38606;52.986;6.980;2023-02-04T11:03:40;7.00;99.90
52709;DHT22;38606;52.986;6.980;2023-02-04T11:06:24;7.10;99.90
52709;DHT22;38606;52.986;6.980;2023-02-04T11:08:50;7.20;99.90
52709;DHT22;38606;52.986;6.980;2023-02-04T11:11:22;7.30;99.90
52709;DHT22;38606;52.986;6.980;2023-02-04T11:21:28;7.10;99.90
52709;DHT22;38606;52.986;6.980;2023-02-04T11:26:48;7.30;99.90
52709;DHT22;38606;52.986;6.980;2023-02-04T11:29:25;7.50;99.90
52709;DHT22;38606;52.986;6.980;2023-02-04T11:39:46;7.90;99.90
52709;DHT22;38606;52.986;6.980;2023-02-04T11:42:31;7.60;99.90
52709;DHT22;38606;52.986;6.980;2023-02-04T11:45:04;7.60;99.90
52709;DHT22;38606;52.986;6.980;2023-02-04T11:47:35;7.90;99.90
52709;DHT22;38606;52.986;6.980;2023-02-04T11:50:12;7.80;99.90
52709;DHT22;38606;52.986;6.980;2023-02-04T11:52:39;7.80;99.90
52709;DHT22;38606;52.986;6.980;2023-02-04T11:55:05;7.70;99.90
52709;DHT22;38606;52.986;6.980;2023-02-04T11:57:38;7.60;99.90
52709;DHT22;38606;52.986;6.980;2023-02-04T12:00:05;8.10;99.90
52709;DHT22;38606;52.986;6.980;2023-02-04T12:02:42;7.80;99.90
52709;DHT22;38606;52.986;6.980;2023-02-04T12:05:11;7.90;99.90
52709;DHT22;38606;52.986;6.980;2023-02-04T12:07:37;7.60;99.90
52709;DHT22;38606;52.986;6.980;2023-02-04T12:10:32;7.70;99.90
52709;DHT22;38606;52.986;6.980;2023-02-04T12:12:58;7.80;99.90
52709;DHT22;38606;52.986;6.980;2023-02-04T12:15:32;7.90;99.90
52709;DHT22;38606;52.986;6.980;2023-02-04T12:18:08;8.00;99.90
52709;DHT22;38606;52.986;6.980;2023-02-04T12:20:37;7.70;99.90
52709;DHT22;38606;52.986;6.980;2023-02-04T12:23:03;7.90;99.90
52709;DHT22;38606;52.986;6.980;2023-02-04T12:25:29;8.10;99.90
52709;DHT22;38606;52.986;6.980;2023-02-04T12:27:55;8.10;99.90
52709;DHT22;38606;52.986;6.980;2023-02-04T12:30:23;10.00;99.90
52709;DHT22;38606;52.986;6.980;2023-02-04T12:32:50;8.10;99.90
52709;DHT22;38606;52.986;6.980;2023-02-04T12:35:16;8.00;99.90
52709;DHT22;38606;52.986;6.980;2023-02-04T12:37:42;8.10;99.90
52709;DHT22;38606;52.986;6.980;2023-02-04T12:40:12;8.90;99.90
52709;DHT22;38606;52.986;6.980;2023-02-04T12:42:39;8.10;99.90
52709;DHT22;38606;52.986;6.980;2023-02-04T12:45:05;8.20;99.90
52709;DHT22;38606;52.986;6.980;2023-02-04T12:47:30;8.40;99.90
52709;DHT22;38606;52.986;6.980;2023-02-04T12:49:56;8.30;99.90
52709;DHT22;38606;52.986;6.980;2023-02-04T12:52:22;8.70;99.90
52709;DHT22;38606;52.986;6.980;2023-02-04T12:54:48;8.20;99.90
52709;DHT22;38606;52.986;6.980;2023-02-04T12:57:13;8.30;99.90
52709;DHT22;38606;52.986;6.980;2023-02-04T12:59:47;8.40;99.90
52709;DHT22;38606;52.986;6.980;2023-02-04T13:02:14;8.10;99.90
52709;DHT22;38606;52.986;6.980;2023-02-04T13:04:40;8.80;99.90
52709;DHT22;38606;52.986;6.980;2023-02-04T13:07:07;9.30;99.90
52709;DHT22;38606;52.986;6.980;2023-02-04T13:09:33;8.20;99.90
52709;DHT22;38606;52.986;6.980;2023-02-04T13:11:59;8.20;99.90
52709;DHT22;38606;52.986;6.980;2023-02-04T13:14:25;8.20;99.90
52709;DHT22;38606;52.986;6.980;2023-02-04T13:16:51;8.30;99.90
52709;DHT22;38606;52.986;6.980;2023-02-04T13:19:16;8.90;99.90
52709;DHT22;38606;52.986;6.980;2023-02-04T13:21:42;8.30;99.90
52709;DHT22;38606;52.986;6.980;2023-02-04T13:24:08;8.40;99.90
52709;DHT22;38606;52.986;6.980;2023-02-04T13:26:34;8.30;99.90
52709;DHT22;38606;52.986;6.980;2023-02-04T13:28:59;8.50;99.90
52709;DHT22;38606;52.986;6.980;2023-02-04T13:31:25;8.30;99.90
52709;DHT22;38606;52.986;6.980;2023-02-04T13:33:51;8.50;99.90
52709;DHT22;38606;52.986;6.980;2023-02-04T13:36:16;8.40;99.90
52709;DHT22;38606;52.986;6.980;2023-02-04T13:38:42;9.60;99.90
52709;DHT22;38606;52.986;6.980;2023-02-04T13:41:08;8.40;99.90
52709;DHT22;38606;52.986;6.980;2023-02-04T13:43:33;9.50;99.90
52709;DHT22;38606;52.986;6.980;2023-02-04T13:45:59;8.40;99.90
52709;DHT22;38606;52.986;6.980;2023-02-04T13:48:27;8.20;99.90
52709;DHT22;38606;52.986;6.980;2023-02-04T13:50:53;8.30;99.90
52709;DHT22;38606;52.986;6.980;2023-02-04T13:53:18;9.50;99.90
52709;DHT22;38606;52.986;6.980;2023-02-04T13:55:44;8.50;99.90
52709;DHT22;38606;52.986;6.980;2023-02-04T13:58:09;8.30;99.90
52709;DHT22;38606;52.986;6.980;2023-02-04T14:00:35;8.10;99.90
52709;DHT22;38606;52.986;6.980;2023-02-04T14:03:01;8.30;99.90
52709;DHT22;38606;52.986;6.980;2023-02-04T14:05:26;8.50;99.90
52709;DHT22;38606;52.986;6.980;2023-02-04T14:07:52;8.20;99.90
52709;DHT22;38606;52.986;6.980;2023-02-04T14:10:18;8.20;99.90
52709;DHT22;38606;52.986;6.980;2023-02-04T14:12:46;8.30;99.90
52709;DHT22;38606;52.986;6.980;2023-02-04T14:15:12;9.60;99.90
52709;DHT22;38606;52.986;6.980;2023-02-04T14:17:37;8.10;99.90
52709;DHT22;38606;52.986;6.980;2023-02-04T14:20:03;8.50;99.90
52709;DHT22;38606;52.986;6.980;2023-02-04T14:22:30;7.90;99.90
52709;DHT22;38606;52.986;6.980;2023-02-04T14:24:55;7.90;99.90
52709;DHT22;38606;52.986;6.980;2023-02-04T14:27:21;5.70;99.90
52709;DHT22;38606;52.986;6.980;2023-02-04T14:29:47;8.70;99.90
52709;DHT22;38606;52.986;6.980;2023-02-04T14:32:13;7.80;99.90
52709;DHT22;38606;52.986;6.980;2023-02-04T14:34:39;7.70;99.90
52709;DHT22;38606;52.986;6.980;2023-02-04T14:37:04;8.60;99.90
52709;DHT22;38606;52.986;6.980;2023-02-04T14:39:30;7.60;99.90
52709;DHT22;38606;52.986;6.980;2023-02-04T14:41:56;7.70;99.90
52709;DHT22;38606;52.986;6.980;2023-02-04T14:44:21;7.60;99.90
52709;DHT22;38606;52.986;6.980;2023-02-04T14:46:48;7.60;99.90
52709;DHT22;38606;52.986;6.980;2023-02-04T14:49:17;7.60;99.90
52709;DHT22;38606;52.986;6.980;2023-02-04T14:51:43;8.00;99.90
52709;DHT22;38606;52.986;6.980;2023-02-04T14:54:08;8.40;99.90
52709;DHT22;38606;52.986;6.980;2023-02-04T14:56:34;7.50;99.90
52709;DHT22;38606;52.986;6.980;2023-02-04T14:59:00;7.50;99.90
52709;DHT22;38606;52.986;6.980;2023-02-04T15:01:25;7.20;99.90
52709;DHT22;38606;52.986;6.980;2023-02-04T15:03:52;7.40;99.90
52709;DHT22;38606;52.986;6.980;2023-02-04T15:06:18;7.40;99.90
52709;DHT22;38606;52.986;6.980;2023-02-04T15:08:44;7.30;99.90
52709;DHT22;38606;52.986;6.980;2023-02-04T15:11:10;7.30;99.90
52709;DHT22;38606;52.986;6.980;2023-02-04T15:13:36;7.20;99.90
52709;DHT22;38606;52.986;6.980;2023-02-04T15:16:01;7.30;99.90
52709;DHT22;38606;52.986;6.980;2023-02-04T15:18:27;7.10;99.90
52709;DHT22;38606;52.986;6.980;2023-02-04T15:20:53;7.70;99.90
52709;DHT22;38606;52.986;6.980;2023-02-04T15:23:19;8.20;99.90
52709;DHT22;38606;52.986;6.980;2023-02-04T15:25:45;7.10;99.90
52709;DHT22;38606;52.986;6.980;2023-02-04T15:28:11;7.20;99.90
52709;DHT22;38606;52.986;6.980;2023-02-04T15:30:37;7.50;99.90
52709;DHT22;38606;52.986;6.980;2023-02-04T15:33:03;8.30;99.90
52709;DHT22;38606;52.986;6.980;2023-02-04T15:35:29;6.90;99.90
52709;DHT22;38606;52.986;6.980;2023-02-04T15:37:57;6.80;99.90
52709;DHT22;38606;52.986;6.980;2023-02-04T15:40:23;7.40;99.90
52709;DHT22;38606;52.986;6.980;2023-02-04T15:42:49;6.70;99.90
52709;DHT22;38606;52.986;6.980;2023-02-04T15:45:15;6.90;99.90
52709;DHT22;38606;52.986;6.980;2023-02-04T15:47:40;6.80;99.90
52709;DHT22;38606;52.986;6.980;2023-02-04T15:50:06;7.40;99.90
52709;DHT22;38606;52.986;6.980;2023-02-04T15:52:35;6.60;99.90
52709;DHT22;38606;52.986;6.980;2023-02-04T15:55:01;6.70;99.90
52709;DHT22;38606;52.986;6.980;2023-02-04T15:57:26;6.80;99.90
52709;DHT22;38606;52.986;6.980;2023-02-04T15:59:52;6.60;99.90
52709;DHT22;38606;52.986;6.980;2023-02-04T16:02:18;8.00;99.90
52709;DHT22;38606;52.986;6.980;2023-02-04T16:04:43;6.40;99.90